KOTM/OTM METAR and TAF weather

Enter ICAO airport designator
Station Type Date Time Source
KOTM METAR 2020/09/25 18:53 UTC NOAA

KOTM 251853Z AUTO 18016G24KT 10SM CLR 27/16 A2982 RMK AO2 SLP092 T02720161


Station Type Date Time Source
KOTM Decoded METAR 2020/09/25 18:53 UTC NOAA

OTTUMWA INDUSTRIAL AIRPORT, IA, United States (KOTM) 41-06N 092-27W 256M
Sep 25, 2020 - 02:53 PM EDT / 2020.09.25 1853 UTC
Wind: from the S (180 degrees) at 18 MPH (16 KT) gusting to 28 MPH (24 KT):0
Visibility: 10 mile(s):0
Sky conditions: clear
Temperature: 81.0 F (27.2 C)
Dew Point: 61.0 F (16.1 C)
Relative Humidity: 50%
Pressure (altimeter): 29.82 in. Hg (1009 hPa)
ob: KOTM 251853Z AUTO 18016G24KT 10SM CLR 27/16 A2982 RMK AO2 SLP092 T02720161
cycle: 19

Station Type Date Time Source
KOTM TAF 2020/09/25 18:30 UTC NOAA

TAF KOTM 251726Z 2518/2618 18012G22KT P6SM SKC
FM252000 18012KT P6SM SKC

Example: see airport list